Hlavní strana
METAR-TAF:

METAR-TAF

Letiště :

Nižnij Novgorod, Rusko

zeměpisná šířka: 56-19-48N, zeměpisná délka: 044-00E, výška: 78 m

Aktuální stav počasí

Zpráva byla vytvořena před 38 minutami, v 01:30 UTC
Jižní vítr 6 kt
Teplota 13°C
Vlhkost vzduchu 62%
Tlak 1005 hPa
Viditelnost 10 km a více
Polojasno ve výšce 4000 ft

METAR: UWGG 090130Z 17003MPS 9999 SCT040 13/06 Q1005 R18L/190055 NOSIG

Čas: 05:08 (02:08 UTC)

Předpověď počasí

Zpráva byla vytvořena před 3 hodinami a 12 minutami, v 22:56 UTC
Předpověď platná od 09 v 00 UTC do 09 v 24 UTC
Jihojihovýchodní vítr 10 kt s nárazy do 23 kt
Viditelnost: 8000 m
Oblačno až skoro zataženo ve výšce 2500 ft
Dočasný
od 09 v 00 UTC do 09 v 18 UTC
Jižní vítr 14 kt s nárazy do 29 kt
Viditelnost: 3000 m
Oblačno až skoro zataženo ve výšce 1000 ft, Cumulonimbus.
slabé dešťové přeháňky

TAF: UWGG 082256Z 0900/0924 16005G12MPS 8000 BKN025 TX15/0912Z TN10/0903Z TEMPO 0900/0918 18007G15MPS 3000 -SHRA BKN010CB

Stav a předpovědi počasí z více než 4 000 letišť (zprávy METAR a TAF).

Červené a žluté tečky na mapě představují dostupné meteorologické stanice.

Když kurzor umístíte na tečku, zobrazí se název stanice.

Pak kliknutím zobrazíte stav a předpověď počasí.

Chcete-li změnit mapu, kliknutím na zelené tlačítko se znaménkem +mapu přiblížíte, kliknutím na zelené tlačítko se znaménkem – mapu oddálíte a kliknutím na zelené šipky přejdete na sousední mapy.


METAR-TAF: